Terminal Aerodrome Forecast
Issued by NWS

Home | Current Version | Previous Version | Text Only | Print | Product List | Glossary On
Versions: 1 2 3 4 5 6 7 8 9 10 11 12
000
FTUS46 KPDT 280500
TAFPSC
TAF
KPSC 280530Z 2806/0106 36017KT P6SM BKN080
     FM281300 36016KT P6SM SCT080
     FM010000 36008KT P6SM SKC=

USA.gov is the U.S. government's official web portal to all federal, state and local government web resources and services.